createdAt,value
2022-09-06T00:03:11.290Z,9.20
2022-09-06T00:08:14.839Z,9.20
2022-09-06T00:13:17.305Z,9.10
2022-09-06T00:18:20.027Z,9.00
2022-09-06T00:23:25.272Z,8.90
2022-09-06T00:28:27.751Z,9.00
2022-09-06T00:33:30.326Z,9.00
2022-09-06T00:38:33.149Z,9.00
2022-09-06T00:43:36.642Z,8.80
2022-09-06T00:48:40.561Z,8.60
2022-09-06T00:53:43.717Z,8.40
2022-09-06T00:58:48.485Z,7.90
2022-09-06T01:03:50.999Z,7.40
2022-09-06T01:09:19.302Z,7.10
2022-09-06T01:14:30.806Z,6.60
2022-09-06T01:19:52.548Z,6.20
2022-09-06T01:25:36.189Z,6.30
2022-09-06T01:30:49.093Z,6.40
2022-09-06T01:36:02.637Z,6.20
2022-09-06T01:41:05.249Z,6.20
2022-09-06T01:46:35.347Z,6.00
2022-09-06T01:52:03.902Z,5.80
2022-09-06T01:57:17.424Z,5.70
2022-09-06T02:02:31.153Z,5.60
2022-09-06T02:07:36.940Z,5.50
2022-09-06T02:12:43.048Z,5.60
2022-09-06T02:18:14.369Z,5.50
2022-09-06T02:23:19.141Z,6.10
2022-09-06T02:28:23.053Z,6.40
2022-09-06T02:33:30.490Z,6.10
2022-09-06T02:38:36.225Z,5.70
2022-09-06T02:43:40.206Z,5.40
2022-09-06T02:48:42.643Z,5.50
2022-09-06T02:53:45.107Z,5.30
2022-09-06T02:58:47.748Z,5.30
2022-09-06T03:03:50.194Z,5.10
2022-09-06T03:08:52.766Z,5.20
2022-09-06T03:13:55.457Z,5.20
2022-09-06T03:18:58.051Z,5.30
2022-09-06T03:24:00.556Z,5.10
2022-09-06T03:29:03.013Z,5.00
2022-09-06T03:34:10.278Z,4.80
2022-09-06T03:39:13.667Z,4.80
2022-09-06T03:44:16.264Z,4.80
2022-09-06T03:49:19.238Z,4.90
2022-09-06T03:54:21.705Z,4.90
2022-09-06T03:59:24.395Z,4.70
2022-09-06T04:04:28.924Z,4.90
2022-09-06T04:09:31.551Z,5.00
2022-09-06T04:14:34.112Z,5.00
2022-09-06T04:19:36.629Z,5.00
2022-09-06T04:24:39.034Z,5.00
2022-09-06T04:29:41.523Z,5.50
2022-09-06T04:34:44.023Z,6.20
2022-09-06T04:39:47.373Z,6.70
2022-09-06T04:44:50.060Z,7.20
2022-09-06T04:49:53.732Z,8.00
2022-09-06T04:54:56.242Z,8.90
2022-09-06T04:59:58.767Z,9.50
2022-09-06T05:05:01.269Z,10.00
2022-09-06T05:10:04.013Z,10.70
2022-09-06T05:15:08.493Z,11.60
2022-09-06T05:20:11.868Z,12.00
2022-09-06T05:25:14.318Z,11.20
2022-09-06T05:30:18.185Z,10.40
2022-09-06T05:35:20.715Z,10.40
2022-09-06T05:40:23.215Z,11.50
2022-09-06T05:45:28.244Z,11.50
2022-09-06T05:50:30.914Z,11.20
2022-09-06T05:55:33.535Z,11.20
2022-09-06T06:00:35.990Z,11.40
2022-09-06T06:05:38.366Z,11.70
2022-09-06T06:10:40.867Z,12.10
2022-09-06T06:15:43.351Z,12.30
2022-09-06T06:20:45.824Z,12.50
2022-09-06T06:25:48.341Z,12.70
2022-09-06T06:30:50.756Z,13.00
2022-09-06T06:35:58.459Z,13.40
2022-09-06T06:41:07.075Z,13.70
2022-09-06T06:46:15.228Z,13.90
2022-09-06T06:51:19.561Z,14.20
2022-09-06T06:56:27.673Z,14.30
2022-09-06T07:01:31.439Z,14.50
2022-09-06T07:12:12.953Z,14.60
2022-09-06T07:17:15.411Z,14.90
2022-09-06T07:22:17.852Z,15.20
2022-09-06T07:32:42.825Z,15.50
2022-09-06T07:37:58.772Z,15.70
2022-09-06T07:43:01.331Z,16.00
2022-09-06T07:48:03.817Z,16.20
2022-09-06T07:53:09.434Z,16.20
2022-09-06T07:58:15.998Z,16.40
2022-09-06T08:03:18.489Z,16.60
2022-09-06T08:13:43.988Z,16.90
2022-09-06T08:18:54.895Z,17.20
2022-09-06T08:24:00.265Z,17.10
2022-09-06T08:29:06.853Z,17.30
2022-09-06T08:34:09.769Z,17.30
2022-09-06T08:39:12.596Z,17.60
2022-09-06T08:49:56.357Z,18.00
2022-09-06T08:55:29.595Z,17.90
2022-09-06T09:00:35.140Z,18.20
2022-09-06T09:05:40.039Z,17.90
2022-09-06T09:10:54.406Z,18.00
2022-09-06T09:15:57.139Z,18.10
2022-09-06T09:20:59.967Z,18.30
2022-09-06T09:26:10.892Z,18.20
2022-09-06T09:31:14.423Z,18.30
2022-09-06T09:36:21.781Z,18.20
2022-09-06T09:41:36.147Z,18.30
2022-09-06T09:46:40.291Z,18.50
2022-09-06T09:52:03.989Z,18.60
2022-09-06T09:57:13.597Z,18.60
2022-09-06T10:02:29.939Z,18.50
2022-09-06T10:07:33.955Z,18.50
2022-09-06T10:12:39.063Z,18.60
2022-09-06T10:17:48.838Z,18.60
2022-09-06T10:23:09.434Z,18.70
2022-09-06T10:28:33.184Z,18.50
2022-09-06T10:33:57.061Z,19.00
2022-09-06T10:39:04.325Z,19.10
2022-09-06T10:44:26.157Z,19.20
2022-09-06T10:49:28.726Z,19.10
2022-09-06T10:54:33.641Z,19.30
2022-09-06T10:59:57.091Z,19.50
2022-09-06T11:10:43.315Z,19.20
2022-09-06T11:15:53.980Z,19.20
2022-09-06T11:21:11.440Z,19.10
2022-09-06T11:26:43.818Z,19.70
2022-09-06T11:32:27.830Z,19.40
2022-09-06T11:37:43.965Z,19.80
2022-09-06T11:42:46.420Z,19.70
2022-09-06T11:47:53.604Z,18.90
2022-09-06T11:53:00.562Z,18.90
2022-09-06T11:58:10.775Z,19.20
2022-09-06T12:09:28.865Z,19.40
2022-09-06T12:14:40.445Z,18.90
2022-09-06T12:19:44.960Z,19.40
2022-09-06T12:24:47.649Z,19.60
2022-09-06T12:29:50.154Z,19.80
2022-09-06T12:40:21.518Z,19.70
2022-09-06T12:45:27.519Z,19.60
2022-09-06T12:50:31.651Z,19.60
2022-09-06T12:55:37.172Z,19.40
2022-09-06T13:00:51.932Z,19.00
2022-09-06T13:05:56.709Z,19.10
2022-09-06T13:10:59.772Z,19.60
2022-09-06T13:16:02.934Z,19.60
2022-09-06T13:21:15.844Z,19.80
2022-09-06T13:26:40.739Z,19.90
2022-09-06T13:31:52.390Z,19.70
2022-09-06T13:37:01.200Z,19.60
2022-09-06T13:42:09.682Z,19.50
2022-09-06T13:47:15.323Z,19.80
2022-09-06T13:52:18.352Z,19.90
2022-09-06T13:57:24.478Z,20.00
2022-09-06T14:02:27.743Z,20.40
2022-09-06T14:07:30.490Z,20.40
2022-09-06T14:12:34.574Z,20.40
2022-09-06T14:17:37.258Z,20.70
2022-09-06T14:22:39.854Z,20.60
2022-09-06T14:27:42.548Z,20.40
2022-09-06T14:32:45.209Z,20.50
2022-09-06T14:37:48.048Z,20.30
2022-09-06T14:42:50.949Z,20.00
2022-09-06T14:47:53.747Z,19.70
2022-09-06T14:52:56.422Z,19.60
2022-09-06T14:57:59.583Z,19.30
2022-09-06T15:03:02.332Z,19.20
2022-09-06T15:08:05.098Z,18.90
2022-09-06T15:13:08.068Z,18.90
2022-09-06T15:18:10.994Z,18.40
2022-09-06T15:23:29.149Z,18.40
2022-09-06T15:28:34.849Z,18.00
2022-09-06T15:33:38.510Z,17.60
2022-09-06T15:38:48.012Z,17.70
2022-09-06T15:43:53.482Z,17.90
2022-09-06T15:48:56.024Z,17.90
2022-09-06T15:53:59.620Z,17.60
2022-09-06T15:59:02.278Z,17.40
2022-09-06T16:04:06.749Z,17.10
2022-09-06T16:09:19.927Z,16.90
2022-09-06T16:14:23.517Z,16.70
2022-09-06T16:19:26.335Z,16.60
2022-09-06T16:24:29.171Z,16.50
2022-09-06T16:29:31.942Z,16.30
2022-09-06T16:34:34.692Z,16.30
2022-09-06T16:39:37.681Z,16.20
2022-09-06T16:44:40.511Z,16.00
2022-09-06T16:49:43.099Z,15.90
2022-09-06T16:54:47.027Z,15.60
2022-09-06T16:59:49.741Z,15.20
2022-09-06T17:04:53.958Z,14.90
2022-09-06T17:09:56.620Z,15.00
2022-09-06T17:14:59.693Z,14.80
2022-09-06T17:20:02.515Z,14.60
2022-09-06T17:25:05.563Z,14.40
2022-09-06T17:30:09.050Z,14.10
2022-09-06T17:35:11.717Z,17.00
2022-09-06T17:40:14.603Z,13.80
2022-09-06T17:45:17.302Z,13.60
2022-09-06T17:50:20.080Z,13.40
2022-09-06T17:55:22.864Z,13.10
2022-09-06T18:00:26.377Z,13.00
2022-09-06T18:05:29.213Z,12.80
2022-09-06T18:10:35.138Z,12.50
2022-09-06T18:15:40.750Z,12.40
2022-09-06T18:20:43.577Z,12.20
2022-09-06T18:26:06.226Z,12.20
2022-09-06T18:31:12.585Z,12.30
2022-09-06T18:36:16.044Z,12.20
2022-09-06T18:41:37.212Z,12.20
2022-09-06T18:46:39.950Z,12.20
2022-09-06T18:51:43.481Z,12.10
2022-09-06T18:56:46.442Z,12.10
2022-09-06T19:01:49.225Z,12.10
2022-09-06T19:06:52.142Z,11.90
2022-09-06T19:11:54.762Z,11.90
2022-09-06T19:16:57.652Z,11.80
2022-09-06T19:22:00.480Z,11.70
2022-09-06T19:27:03.450Z,11.60
2022-09-06T19:32:06.739Z,11.50
2022-09-06T19:37:12.414Z,11.40
2022-09-06T19:42:15.260Z,11.30
2022-09-06T19:47:18.011Z,11.40
2022-09-06T19:52:20.694Z,11.40
2022-09-06T19:57:23.307Z,11.30
2022-09-06T20:02:26.417Z,11.30
2022-09-06T20:07:29.043Z,11.30
2022-09-06T20:12:32.453Z,11.40
2022-09-06T20:17:35.171Z,11.40
2022-09-06T20:22:38.107Z,11.20
2022-09-06T20:27:44.361Z,11.10
2022-09-06T20:32:47.335Z,10.80
2022-09-06T20:37:53.608Z,10.70
2022-09-06T20:42:56.369Z,10.60
2022-09-06T20:47:59.133Z,10.60
2022-09-06T20:53:01.820Z,10.50
2022-09-06T20:58:04.446Z,10.50
2022-09-06T21:03:07.500Z,10.40
2022-09-06T21:08:10.504Z,10.40
2022-09-06T21:13:13.962Z,10.30
2022-09-06T21:18:16.624Z,10.30
2022-09-06T21:23:19.260Z,10.20
2022-09-06T21:28:21.999Z,10.20
2022-09-06T21:33:26.845Z,10.20
2022-09-06T21:38:31.256Z,10.20
2022-09-06T21:43:34.366Z,10.00
2022-09-06T21:48:42.466Z,10.00
2022-09-06T21:53:46.420Z,9.50
2022-09-06T21:58:55.499Z,9.30
2022-09-06T22:04:00.335Z,9.40
2022-09-06T22:09:11.184Z,9.40
2022-09-06T22:14:15.214Z,9.60
2022-09-06T22:19:18.024Z,9.50
2022-09-06T22:24:20.809Z,9.70
2022-09-06T22:29:23.504Z,9.80
2022-09-06T22:34:26.264Z,10.00
2022-09-06T22:39:29.150Z,10.00
2022-09-06T22:44:31.793Z,10.00
2022-09-06T22:49:34.315Z,10.00
2022-09-06T22:54:38.141Z,9.80
2022-09-06T22:59:40.807Z,9.80
2022-09-06T23:04:43.467Z,10.00
2022-09-06T23:09:46.254Z,9.80
2022-09-06T23:14:48.807Z,9.90
2022-09-06T23:19:51.499Z,9.80
2022-09-06T23:24:54.304Z,9.60
2022-09-06T23:29:57.230Z,9.70
2022-09-06T23:34:59.905Z,9.60
2022-09-06T23:40:05.826Z,9.50
2022-09-06T23:45:11.894Z,9.30
2022-09-06T23:50:15.379Z,9.40
2022-09-06T23:55:18.090Z,9.30
